createdAt,value
2022-08-05T00:01:35.894Z,62.63
2022-08-05T00:04:08.208Z,63.20
2022-08-05T00:06:36.649Z,63.20
2022-08-05T00:09:12.774Z,63.06
2022-08-05T00:11:49.375Z,63.56
2022-08-05T00:14:27.689Z,63.48
2022-08-05T00:16:58.030Z,63.39
2022-08-05T00:19:33.134Z,63.46
2022-08-05T00:22:11.306Z,63.40
2022-08-05T00:24:42.256Z,63.17
2022-08-05T00:27:16.500Z,63.13
2022-08-05T00:29:45.390Z,62.64
2022-08-05T00:32:15.490Z,62.45
2022-08-05T00:35:04.095Z,62.46
2022-08-05T00:37:53.086Z,62.58
2022-08-05T00:40:26.801Z,62.69
2022-08-05T00:42:59.170Z,62.87
2022-08-05T00:45:38.467Z,63.14
2022-08-05T00:48:31.420Z,63.33
2022-08-05T00:50:59.897Z,63.41
2022-08-05T00:54:00.396Z,63.66
2022-08-05T00:56:25.309Z,63.84
2022-08-05T00:58:53.656Z,63.69
2022-08-05T01:01:42.165Z,63.61
2022-08-05T01:04:14.126Z,63.61
2022-08-05T01:06:48.451Z,63.57
2022-08-05T01:09:17.416Z,64.05
2022-08-05T01:11:56.031Z,64.03
2022-08-05T01:14:33.520Z,64.32
2022-08-05T01:17:05.362Z,64.33
2022-08-05T01:20:01.440Z,64.78
2022-08-05T01:22:47.020Z,65.02
2022-08-05T01:25:40.106Z,65.11
2022-08-05T01:28:19.181Z,65.45
2022-08-05T01:31:10.600Z,65.48
2022-08-05T01:33:53.602Z,65.64
2022-08-05T01:36:28.265Z,65.81
2022-08-05T01:39:01.032Z,65.99
2022-08-05T01:41:33.783Z,66.05
2022-08-05T01:44:03.108Z,66.15
2022-08-05T01:46:42.579Z,66.10
2022-08-05T01:49:22.827Z,66.20
2022-08-05T01:51:59.041Z,66.21
2022-08-05T01:54:45.728Z,65.91
2022-08-05T01:58:13.082Z,66.19
2022-08-05T02:00:12.879Z,66.15
2022-08-05T02:02:54.283Z,66.45
2022-08-05T02:05:30.523Z,66.51
2022-08-05T02:08:03.473Z,66.43
2022-08-05T02:10:40.156Z,66.25
2022-08-05T02:13:19.137Z,66.32
2022-08-05T02:16:06.298Z,66.41
2022-08-05T02:19:00.178Z,66.46
2022-08-05T02:21:43.103Z,66.23
2022-08-05T02:24:23.153Z,66.29
2022-08-05T02:26:56.426Z,66.19
2022-08-05T02:29:59.496Z,66.10
2022-08-05T02:32:23.759Z,66.24
2022-08-05T02:35:09.694Z,66.26
2022-08-05T02:37:47.617Z,66.32
2022-08-05T02:40:24.467Z,66.22
2022-08-05T02:42:55.832Z,66.48
2022-08-05T02:45:26.532Z,66.62
2022-08-05T02:48:06.984Z,66.82
2022-08-05T02:50:47.190Z,66.91
2022-08-05T02:53:19.633Z,67.21
2022-08-05T02:55:59.650Z,67.02
2022-08-05T02:58:30.253Z,66.99
2022-08-05T03:01:02.576Z,67.08
2022-08-05T03:03:34.110Z,67.14
2022-08-05T03:06:55.961Z,67.28
2022-08-05T03:09:15.766Z,67.15
2022-08-05T03:11:54.641Z,67.32
2022-08-05T03:14:26.259Z,67.25
2022-08-05T03:16:54.639Z,67.30
2022-08-05T03:19:34.212Z,67.70
2022-08-05T03:22:04.994Z,67.87
2022-08-05T03:24:33.787Z,67.58
2022-08-05T03:27:03.823Z,67.89
2022-08-05T03:29:45.520Z,68.07
2022-08-05T03:32:31.022Z,68.06
2022-08-05T03:34:59.776Z,68.08
2022-08-05T03:37:31.440Z,68.55
2022-08-05T03:40:15.505Z,68.78
2022-08-05T03:42:53.597Z,68.69
2022-08-05T03:45:23.706Z,68.74
2022-08-05T03:47:56.856Z,68.77
2022-08-05T03:50:45.500Z,68.38
2022-08-05T03:55:51.935Z,68.06
2022-08-05T03:56:50.264Z,68.11
2022-08-05T03:59:46.919Z,67.85
2022-08-05T04:02:38.628Z,67.74
2022-08-05T04:05:10.076Z,67.70
2022-08-05T04:07:53.167Z,67.34
2022-08-05T04:10:32.152Z,67.38
2022-08-05T04:13:08.046Z,67.36
2022-08-05T04:15:37.239Z,67.56
2022-08-05T04:18:09.439Z,67.34
2022-08-05T04:20:38.599Z,67.28
2022-08-05T04:23:12.635Z,67.14
2022-08-05T04:25:57.759Z,67.11
2022-08-05T04:28:30.808Z,67.09
2022-08-05T04:31:01.520Z,67.28
2022-08-05T04:33:54.759Z,67.16
2022-08-05T04:36:44.824Z,66.91
2022-08-05T04:39:07.373Z,66.89
2022-08-05T04:41:37.715Z,66.72
2022-08-05T04:44:09.275Z,66.67
2022-08-05T04:46:38.983Z,66.54
2022-08-05T04:49:12.186Z,66.10
2022-08-05T04:51:44.343Z,66.25
2022-08-05T04:54:14.815Z,66.30
2022-08-05T04:56:43.627Z,66.18
2022-08-05T04:59:22.042Z,66.23
2022-08-05T05:02:07.946Z,65.80
2022-08-05T05:04:44.159Z,65.81
2022-08-05T05:07:18.447Z,65.63
2022-08-05T05:09:52.353Z,65.69
2022-08-05T05:12:22.320Z,65.47
2022-08-05T05:14:51.326Z,65.43
2022-08-05T05:17:23.807Z,65.67
2022-08-05T05:19:56.481Z,65.61
2022-08-05T05:22:26.794Z,65.52
2022-08-05T05:24:56.973Z,65.49
2022-08-05T05:27:45.767Z,65.55
2022-08-05T05:30:29.736Z,65.42
2022-08-05T05:33:16.227Z,65.57
2022-08-05T05:35:47.079Z,65.08
2022-08-05T05:38:22.925Z,64.97
2022-08-05T05:40:57.082Z,64.74
2022-08-05T05:43:54.484Z,64.43
2022-08-05T05:46:17.461Z,64.18
2022-08-05T05:48:48.678Z,63.83
2022-08-05T05:51:24.471Z,63.68
2022-08-05T05:53:58.898Z,62.46
2022-08-05T05:56:32.765Z,61.76
2022-08-05T05:59:07.647Z,61.83
2022-08-05T06:01:39.407Z,61.49
2022-08-05T06:04:11.554Z,61.57
2022-08-05T06:06:42.995Z,61.63
2022-08-05T06:09:18.203Z,61.24
2022-08-05T06:12:02.736Z,60.98
2022-08-05T06:14:32.130Z,60.65
2022-08-05T06:17:22.253Z,60.10
2022-08-05T06:19:56.756Z,60.44
2022-08-05T06:22:33.678Z,60.23
2022-08-05T06:25:24.509Z,59.96
2022-08-05T06:28:11.814Z,59.84
2022-08-05T06:30:41.347Z,59.51
2022-08-05T06:33:10.775Z,59.32
2022-08-05T06:36:07.469Z,58.75
2022-08-05T06:38:35.781Z,58.92
2022-08-05T06:41:07.764Z,58.89
2022-08-05T06:43:58.027Z,58.66
2022-08-05T06:46:30.032Z,58.66
2022-08-05T06:49:01.284Z,58.51
2022-08-05T06:51:31.303Z,58.55
2022-08-05T06:54:01.775Z,58.26
2022-08-05T06:56:34.354Z,58.21
2022-08-05T06:59:08.328Z,57.79
2022-08-05T07:01:41.503Z,57.42
2022-08-05T07:04:11.172Z,57.58
2022-08-05T07:06:42.348Z,57.78
2022-08-05T07:09:10.491Z,57.56
2022-08-05T07:11:39.869Z,57.60
2022-08-05T07:14:30.052Z,57.53
2022-08-05T07:17:58.404Z,57.38
2022-08-05T07:22:42.489Z,57.22
2022-08-05T07:25:55.120Z,57.03
2022-08-05T07:28:05.735Z,56.51
2022-08-05T07:30:39.015Z,56.33
2022-08-05T07:33:16.607Z,55.91
2022-08-05T07:36:04.910Z,55.21
2022-08-05T07:38:43.663Z,55.28
2022-08-05T07:42:13.205Z,54.65
2022-08-05T07:44:14.323Z,53.06
2022-08-05T07:46:50.130Z,53.40
2022-08-05T07:49:20.086Z,51.87
2022-08-05T07:51:53.662Z,52.28
2022-08-05T07:54:31.511Z,51.50
2022-08-05T07:57:22.718Z,52.12
2022-08-05T07:59:53.660Z,50.90
2022-08-05T08:02:30.938Z,50.28
2022-08-05T08:05:16.616Z,50.59
2022-08-05T08:07:59.686Z,49.19
2022-08-05T08:10:30.135Z,49.22
2022-08-05T08:12:58.892Z,48.84
2022-08-05T08:16:33.619Z,49.15
2022-08-05T08:18:15.371Z,48.63
2022-08-05T08:21:02.431Z,48.43
2022-08-05T08:24:01.282Z,48.73
2022-08-05T08:26:29.718Z,47.88
2022-08-05T08:29:09.755Z,47.33
2022-08-05T08:31:50.386Z,46.97
2022-08-05T08:34:30.305Z,46.72
2022-08-05T08:37:04.670Z,46.93
2022-08-05T08:39:37.763Z,46.44
2022-08-05T08:42:34.553Z,46.77
2022-08-05T08:45:23.752Z,46.76
2022-08-05T08:48:06.746Z,46.76
2022-08-05T08:51:07.449Z,46.07
2022-08-05T08:53:37.423Z,45.79
2022-08-05T08:56:06.602Z,45.58
2022-08-05T08:58:43.875Z,45.37
2022-08-05T09:01:18.388Z,43.89
2022-08-05T09:03:55.071Z,43.98
2022-08-05T09:06:29.853Z,44.25
2022-08-05T09:09:01.526Z,43.32
2022-08-05T09:11:53.341Z,42.31
2022-08-05T09:14:59.129Z,41.13
2022-08-05T09:17:43.040Z,41.88
2022-08-05T09:20:05.861Z,41.54
2022-08-05T09:23:09.177Z,42.20
2022-08-05T09:25:59.946Z,42.63
2022-08-05T09:28:33.825Z,42.93
2022-08-05T09:31:43.300Z,40.72
2022-08-05T09:33:59.818Z,41.00
2022-08-05T09:36:54.849Z,40.87
2022-08-05T09:39:39.238Z,40.70
2022-08-05T09:42:24.335Z,40.73
2022-08-05T09:45:17.642Z,39.59
2022-08-05T09:47:55.111Z,39.57
2022-08-05T09:50:44.592Z,38.63
2022-08-05T09:53:22.910Z,38.74
2022-08-05T09:56:03.764Z,39.08
2022-08-05T09:58:33.394Z,38.64
2022-08-05T10:01:14.844Z,38.46
2022-08-05T10:04:19.315Z,38.72
2022-08-05T10:06:58.822Z,37.59
2022-08-05T10:09:29.884Z,37.90
2022-08-05T10:12:30.547Z,38.63
2022-08-05T10:15:25.937Z,38.11
2022-08-05T10:18:09.343Z,36.97
2022-08-05T10:20:42.010Z,36.56
2022-08-05T10:23:34.776Z,36.48
2022-08-05T10:26:04.481Z,35.83
2022-08-05T10:28:36.760Z,35.97
2022-08-05T10:32:49.069Z,34.75
2022-08-05T10:33:54.454Z,34.72
2022-08-05T10:36:25.918Z,35.26
2022-08-05T10:39:10.033Z,35.05
2022-08-05T10:42:05.617Z,34.54
2022-08-05T10:44:35.231Z,33.72
2022-08-05T10:47:25.909Z,33.57
2022-08-05T10:50:32.526Z,32.22
2022-08-05T10:53:01.846Z,32.97
2022-08-05T10:55:38.434Z,32.52
2022-08-05T10:58:20.722Z,31.40
2022-08-05T11:00:55.245Z,31.52
2022-08-05T11:03:31.425Z,31.84
2022-08-05T11:06:15.108Z,32.05
2022-08-05T11:09:24.234Z,32.48
2022-08-05T11:12:45.351Z,31.81
2022-08-05T11:16:00.303Z,31.28
2022-08-05T11:18:34.501Z,30.47
2022-08-05T11:21:06.395Z,30.61
2022-08-05T11:24:05.470Z,30.84
2022-08-05T11:26:40.353Z,31.48
2022-08-05T11:29:35.325Z,30.21
2022-08-05T11:32:29.345Z,30.24
2022-08-05T11:34:58.040Z,29.64
2022-08-05T11:38:36.951Z,28.47
2022-08-05T11:41:34.330Z,27.64
2022-08-05T11:44:12.814Z,27.40
2022-08-05T11:47:14.086Z,27.79
2022-08-05T11:49:49.775Z,27.58
2022-08-05T11:52:31.061Z,27.60
2022-08-05T11:55:07.502Z,27.16
2022-08-05T11:58:08.121Z,27.48
2022-08-05T12:00:31.861Z,27.88
2022-08-05T12:03:29.086Z,28.31
2022-08-05T12:06:06.616Z,28.64
2022-08-05T12:08:49.949Z,28.78
2022-08-05T12:11:24.664Z,27.74
2022-08-05T12:14:04.229Z,26.62
2022-08-05T12:16:35.063Z,27.30
2022-08-05T12:19:08.914Z,27.95
2022-08-05T12:21:48.182Z,27.21
2022-08-05T12:24:19.634Z,26.94
2022-08-05T12:26:50.305Z,26.90
2022-08-05T12:29:23.878Z,26.68
2022-08-05T12:32:02.175Z,26.43
2022-08-05T12:34:37.202Z,26.35
2022-08-05T12:37:17.534Z,26.66
2022-08-05T12:39:51.953Z,25.62
2022-08-05T12:42:25.341Z,26.20
2022-08-05T12:45:03.599Z,24.95
2022-08-05T12:47:38.571Z,24.58
2022-08-05T12:50:26.675Z,25.22
2022-08-05T12:53:00.182Z,25.18
2022-08-05T12:55:32.614Z,25.23
2022-08-05T12:58:49.311Z,24.35
2022-08-05T13:02:02.673Z,24.61
2022-08-05T13:03:41.941Z,25.29
2022-08-05T13:06:18.234Z,25.28
2022-08-05T13:08:51.805Z,24.91
2022-08-05T13:11:59.725Z,24.56
2022-08-05T13:14:35.773Z,24.65
2022-08-05T13:17:10.523Z,23.03
2022-08-05T13:19:51.900Z,22.14
2022-08-05T13:22:28.058Z,22.43
2022-08-05T13:25:05.452Z,23.49
2022-08-05T13:27:40.221Z,24.20
2022-08-05T13:30:33.560Z,24.43
2022-08-05T13:33:01.262Z,25.10
2022-08-05T13:35:43.191Z,25.83
2022-08-05T13:38:31.057Z,25.06
2022-08-05T13:41:04.558Z,24.18
2022-08-05T13:43:45.825Z,24.15
2022-08-05T13:46:43.987Z,23.94
2022-08-05T13:49:12.871Z,24.09
2022-08-05T13:51:45.850Z,24.08
2022-08-05T13:54:17.117Z,23.57
2022-08-05T13:56:50.916Z,23.89
2022-08-05T13:59:24.392Z,23.21
2022-08-05T14:02:00.317Z,23.46
2022-08-05T14:04:51.107Z,23.37
2022-08-05T14:07:59.742Z,22.56
2022-08-05T14:10:28.889Z,22.27
2022-08-05T14:13:00.118Z,22.36
2022-08-05T14:16:07.267Z,23.19
2022-08-05T14:18:23.435Z,23.40
2022-08-05T14:20:54.903Z,23.33
2022-08-05T14:23:25.583Z,23.15
2022-08-05T14:25:58.169Z,23.68
2022-08-05T14:28:29.193Z,23.04
2022-08-05T14:30:59.160Z,22.78
2022-08-05T14:33:27.286Z,23.28
2022-08-05T14:36:02.133Z,23.16
2022-08-05T14:38:34.033Z,23.12
2022-08-05T14:41:07.515Z,24.02
2022-08-05T14:43:59.540Z,24.30
2022-08-05T14:46:29.759Z,24.65
2022-08-05T14:49:06.949Z,24.83
2022-08-05T14:51:38.470Z,24.13
2022-08-05T14:54:28.479Z,23.87
2022-08-05T14:56:58.989Z,23.82
2022-08-05T14:59:29.803Z,23.80
2022-08-05T15:02:14.828Z,23.34
2022-08-05T15:04:47.655Z,23.49
2022-08-05T15:08:09.183Z,23.94
2022-08-05T15:10:05.838Z,23.71
2022-08-05T15:12:58.028Z,23.80
2022-08-05T15:15:55.553Z,23.98
2022-08-05T15:18:17.295Z,24.21
2022-08-05T15:20:46.263Z,24.31
2022-08-05T15:23:15.863Z,23.94
2022-08-05T15:25:51.916Z,23.99
2022-08-05T15:28:27.741Z,24.10
2022-08-05T15:30:57.385Z,23.89
2022-08-05T15:34:04.678Z,24.03
2022-08-05T15:36:17.205Z,23.99
2022-08-05T15:40:41.721Z,24.04
2022-08-05T15:41:58.564Z,24.13
2022-08-05T15:44:30.416Z,24.18
2022-08-05T15:47:01.957Z,24.46
2022-08-05T15:49:48.203Z,24.74
2022-08-05T15:52:51.851Z,24.94
2022-08-05T15:55:15.739Z,24.54
2022-08-05T15:57:48.974Z,24.73
2022-08-05T16:00:26.159Z,25.13
2022-08-05T16:03:03.640Z,25.30
2022-08-05T16:05:32.026Z,25.50
2022-08-05T16:08:00.320Z,25.78
2022-08-05T16:10:29.515Z,25.61
2022-08-05T16:12:59.308Z,25.48
2022-08-05T16:15:32.510Z,25.40
2022-08-05T16:18:04.047Z,25.37
2022-08-05T16:20:32.950Z,25.82
2022-08-05T16:23:03.741Z,26.02
2022-08-05T16:25:33.964Z,26.02
2022-08-05T16:28:09.666Z,26.36
2022-08-05T16:30:38.848Z,26.26
2022-08-05T16:33:06.868Z,26.90
2022-08-05T16:35:41.978Z,26.67
2022-08-05T16:38:23.877Z,27.10
2022-08-05T16:41:00.421Z,27.22
2022-08-05T16:43:34.739Z,28.00
2022-08-05T16:46:12.670Z,28.49
2022-08-05T16:48:52.187Z,28.69
2022-08-05T16:51:20.876Z,28.53
2022-08-05T16:54:06.050Z,28.57
2022-08-05T16:56:41.674Z,28.88
2022-08-05T16:59:10.648Z,29.46
2022-08-05T17:01:52.934Z,29.62
2022-08-05T17:04:26.056Z,30.10
2022-08-05T17:07:03.133Z,29.74
2022-08-05T17:09:55.964Z,29.78
2022-08-05T17:12:22.606Z,29.72
2022-08-05T17:15:09.309Z,30.07
2022-08-05T17:17:42.135Z,30.73
2022-08-05T17:20:14.651Z,31.64
2022-08-05T17:22:43.102Z,32.77
2022-08-05T17:25:34.074Z,33.21
2022-08-05T17:28:01.512Z,33.44
2022-08-05T17:30:29.639Z,33.35
2022-08-05T17:32:57.812Z,33.55
2022-08-05T17:35:25.986Z,33.85
2022-08-05T17:38:04.835Z,34.02
2022-08-05T17:40:33.291Z,34.19
2022-08-05T17:43:02.182Z,33.86
2022-08-05T17:45:38.318Z,34.16
2022-08-05T17:48:08.288Z,34.57
2022-08-05T17:50:36.740Z,34.96
2022-08-05T17:53:08.666Z,35.32
2022-08-05T17:55:39.564Z,36.06
2022-08-05T17:58:12.523Z,35.94
2022-08-05T18:00:50.813Z,36.90
2022-08-05T18:03:48.481Z,37.35
2022-08-05T18:06:12.341Z,37.16
2022-08-05T18:08:52.206Z,37.99
2022-08-05T18:11:23.795Z,38.39
2022-08-05T18:13:54.738Z,38.49
2022-08-05T18:16:23.818Z,38.61
2022-08-05T18:18:52.036Z,38.81
2022-08-05T18:21:22.898Z,39.06
2022-08-05T18:23:54.597Z,39.49
2022-08-05T18:26:27.645Z,39.59
2022-08-05T18:28:58.512Z,39.83
2022-08-05T18:31:35.196Z,40.34
2022-08-05T18:34:06.190Z,40.67
2022-08-05T18:36:41.317Z,41.06
2022-08-05T18:39:42.539Z,41.18
2022-08-05T18:42:06.202Z,40.80
2022-08-05T18:44:49.354Z,40.85
2022-08-05T18:47:26.394Z,41.50
2022-08-05T18:50:15.727Z,41.81
2022-08-05T18:52:51.451Z,42.11
2022-08-05T18:55:22.319Z,42.19
2022-08-05T18:57:53.492Z,42.11
2022-08-05T19:00:28.591Z,42.96
2022-08-05T19:03:03.860Z,43.15
2022-08-05T19:06:12.425Z,43.15
2022-08-05T19:08:30.285Z,43.79
2022-08-05T19:11:04.842Z,44.38
2022-08-05T19:13:36.689Z,44.18
2022-08-05T19:16:25.198Z,44.58
2022-08-05T19:18:56.775Z,44.82
2022-08-05T19:21:27.373Z,44.89
2022-08-05T19:24:05.510Z,44.98
2022-08-05T19:26:44.039Z,45.44
2022-08-05T19:29:26.817Z,45.77
2022-08-05T19:32:11.254Z,45.87
2022-08-05T19:34:40.676Z,46.14
2022-08-05T19:37:10.858Z,46.66
2022-08-05T19:39:45.582Z,46.69
2022-08-05T19:42:35.875Z,46.82
2022-08-05T19:45:06.460Z,47.18
2022-08-05T19:47:37.500Z,47.18
2022-08-05T19:50:11.911Z,47.01
2022-08-05T19:52:41.039Z,47.44
2022-08-05T19:56:14.451Z,47.52
2022-08-05T19:58:19.592Z,47.78
2022-08-05T20:00:46.741Z,48.26
2022-08-05T20:03:15.441Z,48.33
2022-08-05T20:05:51.384Z,47.92
2022-08-05T20:08:20.452Z,48.19
2022-08-05T20:10:54.023Z,48.70
2022-08-05T20:13:30.116Z,48.62
2022-08-05T20:16:10.977Z,48.86
2022-08-05T20:18:39.719Z,49.47
2022-08-05T20:21:08.912Z,49.23
2022-08-05T20:23:51.345Z,49.63
2022-08-05T20:26:24.833Z,49.79
2022-08-05T20:28:56.915Z,50.40
2022-08-05T20:31:37.299Z,50.32
2022-08-05T20:34:16.167Z,50.83
2022-08-05T20:36:45.573Z,50.85
2022-08-05T20:39:16.655Z,51.03
2022-08-05T20:41:47.908Z,51.11
2022-08-05T20:44:29.498Z,51.14
2022-08-05T20:47:05.253Z,51.42
2022-08-05T20:49:38.127Z,51.37
2022-08-05T20:52:08.959Z,51.69
2022-08-05T20:54:42.805Z,51.56
2022-08-05T20:57:14.341Z,51.33
2022-08-05T21:00:10.650Z,51.33
2022-08-05T21:02:31.108Z,51.49
2022-08-05T21:04:59.317Z,51.35
2022-08-05T21:07:45.607Z,51.44
2022-08-05T21:10:18.978Z,51.49
2022-08-05T21:13:08.897Z,51.42
2022-08-05T21:15:37.241Z,51.66
2022-08-05T21:18:05.422Z,52.47
2022-08-05T21:20:34.199Z,52.87
2022-08-05T21:23:02.896Z,52.88
2022-08-05T21:25:33.648Z,53.01
2022-08-05T21:28:03.523Z,53.11
2022-08-05T21:30:31.922Z,53.13
2022-08-05T21:33:01.822Z,53.34
2022-08-05T21:35:55.507Z,53.32
2022-08-05T21:38:19.382Z,53.19
2022-08-05T21:40:47.560Z,53.50
2022-08-05T21:43:17.737Z,53.58
2022-08-05T21:45:57.972Z,53.44
2022-08-05T21:48:29.278Z,53.50
2022-08-05T21:50:59.932Z,53.50
2022-08-05T21:53:28.190Z,53.51
2022-08-05T21:56:16.161Z,53.84
2022-08-05T21:58:57.042Z,53.86
2022-08-05T22:01:26.579Z,54.24
2022-08-05T22:03:55.202Z,54.47
2022-08-05T22:06:35.332Z,54.20
2022-08-05T22:09:14.754Z,54.36
2022-08-05T22:11:47.250Z,54.43
2022-08-05T22:14:35.340Z,54.76
2022-08-05T22:17:06.700Z,55.00
2022-08-05T22:20:00.644Z,55.06
2022-08-05T22:22:28.038Z,54.95
2022-08-05T22:25:21.190Z,55.18
2022-08-05T22:28:11.098Z,55.30
2022-08-05T22:30:55.834Z,55.65
2022-08-05T22:33:57.195Z,55.80
2022-08-05T22:36:17.840Z,55.86
2022-08-05T22:38:48.149Z,55.69
2022-08-05T22:42:05.522Z,55.88
2022-08-05T22:44:09.110Z,55.85
2022-08-05T22:46:40.206Z,56.12
2022-08-05T22:49:12.138Z,56.28
2022-08-05T22:52:05.350Z,56.46
2022-08-05T22:54:37.133Z,56.51
2022-08-05T22:57:07.230Z,56.84
2022-08-05T22:59:48.545Z,57.09
2022-08-05T23:02:29.226Z,56.92
2022-08-05T23:05:01.529Z,56.94
2022-08-05T23:07:45.364Z,56.81
2022-08-05T23:10:19.860Z,57.27
2022-08-05T23:12:51.220Z,57.69
2022-08-05T23:15:20.055Z,57.84
2022-08-05T23:18:00.433Z,57.81
2022-08-05T23:20:32.194Z,58.20
2022-08-05T23:23:05.991Z,57.85
2022-08-05T23:25:51.635Z,57.89
2022-08-05T23:28:27.736Z,58.07
2022-08-05T23:31:16.728Z,57.83
2022-08-05T23:34:04.083Z,58.10
2022-08-05T23:36:38.686Z,58.49
2022-08-05T23:39:10.109Z,59.02
2022-08-05T23:41:48.604Z,59.26
2022-08-05T23:44:17.181Z,59.27
2022-08-05T23:46:48.327Z,59.64
2022-08-05T23:49:23.599Z,60.04
2022-08-05T23:52:12.039Z,59.88
2022-08-05T23:54:46.234Z,59.82
2022-08-05T23:57:14.410Z,60.09
